createdAt,value
2018-02-06T00:02:24.881Z,100205.88
2018-02-06T00:04:52.433Z,100209.83
2018-02-06T00:07:20.365Z,100206.39
2018-02-06T00:09:47.957Z,100207.73
2018-02-06T00:12:15.517Z,100203.05
2018-02-06T00:14:43.107Z,100202.84
2018-02-06T00:17:10.646Z,100217.78
2018-02-06T00:19:38.218Z,100216.35
2018-02-06T00:22:05.872Z,100218.48
2018-02-06T00:24:33.440Z,100220.31
2018-02-06T00:27:01.033Z,100219.44
2018-02-06T00:29:28.570Z,100214.85
2018-02-06T00:31:56.671Z,100213.44
2018-02-06T00:34:24.787Z,100219.64
2018-02-06T00:36:52.326Z,100221.83
2018-02-06T00:39:19.924Z,100226.67
2018-02-06T00:42:04.922Z,100234.95
2018-02-06T00:44:33.000Z,100232.55
2018-02-06T00:47:00.560Z,100227.79
2018-02-06T00:49:28.105Z,100227.03
2018-02-06T00:51:55.694Z,100221.39
2018-02-06T00:54:24.484Z,100218.20
2018-02-06T00:56:52.076Z,100205.09
2018-02-06T00:59:20.005Z,100201.98
2018-02-06T01:01:47.555Z,100204.45
2018-02-06T01:04:15.155Z,100201.27
2018-02-06T01:06:42.700Z,100193.89
2018-02-06T01:09:10.273Z,100199.17
2018-02-06T01:11:37.866Z,100199.28
2018-02-06T01:14:05.452Z,100196.78
2018-02-06T01:16:33.004Z,100196.72
2018-02-06T01:19:00.587Z,100198.08
2018-02-06T01:21:28.674Z,100191.27
2018-02-06T01:23:56.293Z,100186.44
2018-02-06T01:26:24.114Z,100181.54
2018-02-06T01:28:51.651Z,100187.05
2018-02-06T01:31:19.590Z,100182.74
2018-02-06T01:33:47.134Z,100180.91
2018-02-06T01:36:14.744Z,100176.42
2018-02-06T01:38:42.307Z,100176.32
2018-02-06T01:41:09.872Z,100176.09
2018-02-06T01:43:37.473Z,100173.84
2018-02-06T01:46:05.199Z,100175.48
2018-02-06T01:48:33.726Z,100171.52
2018-02-06T01:51:01.288Z,100170.95
2018-02-06T01:53:28.887Z,100166.22
2018-02-06T01:55:56.443Z,100160.78
2018-02-06T01:58:24.044Z,100159.26
2018-02-06T02:00:51.635Z,100162.83
2018-02-06T02:03:19.192Z,100157.03
2018-02-06T02:05:46.819Z,100158.82
2018-02-06T02:08:14.761Z,100155.37
2018-02-06T02:10:42.832Z,100148.91
2018-02-06T02:13:10.435Z,100156.23
2018-02-06T02:15:38.014Z,100148.92
2018-02-06T02:18:05.562Z,100145.36
2018-02-06T02:20:33.263Z,100149.19
2018-02-06T02:23:00.858Z,100143.07
2018-02-06T02:25:28.414Z,100143.08
2018-02-06T02:27:56.019Z,100150.41
2018-02-06T02:30:23.602Z,100145.12
2018-02-06T02:32:51.154Z,100142.02
2018-02-06T02:35:18.772Z,100145.44
2018-02-06T02:37:46.323Z,100146.30
2018-02-06T02:40:14.298Z,100147.56
2018-02-06T04:40:49.227Z,100190.80
2018-02-06T04:43:16.805Z,100195.11
2018-02-06T04:45:44.396Z,100190.74
2018-02-06T04:48:11.986Z,100204.94
2018-02-06T04:50:39.527Z,100198.82
2018-02-06T04:53:07.115Z,100206.55
2018-02-06T04:55:34.654Z,100201.29
2018-02-06T04:58:02.235Z,100208.15
2018-02-06T05:00:29.774Z,100213.02
2018-02-06T05:02:57.997Z,100223.87
2018-02-06T05:05:25.543Z,100231.29
2018-02-06T05:07:53.131Z,100240.02
2018-02-06T05:10:20.722Z,100246.50
2018-02-06T05:12:48.275Z,100251.34
2018-02-06T05:15:16.471Z,100253.08
2018-02-06T05:17:44.032Z,100262.42
2018-02-06T05:20:11.634Z,100263.80
2018-02-06T05:22:39.186Z,100258.28
2018-02-06T05:25:06.744Z,100262.62
2018-02-06T05:27:34.325Z,100265.20
2018-02-06T05:30:01.919Z,100269.12
2018-02-06T05:32:29.524Z,100262.19
2018-02-06T05:34:57.068Z,100267.83
2018-02-06T05:37:24.663Z,100280.34
2018-02-06T05:39:52.267Z,100277.34
2018-02-06T05:42:19.869Z,100292.82
2018-02-06T05:44:47.505Z,100289.26
2018-02-06T05:47:15.274Z,100296.27
2018-02-06T05:49:42.827Z,100295.94
2018-02-06T05:52:10.497Z,100289.87
2018-02-06T05:54:38.095Z,100292.91
2018-02-06T05:57:06.093Z,100289.88
2018-02-06T05:59:33.685Z,100285.97
2018-02-06T06:02:01.836Z,100281.23
2018-02-06T06:04:29.459Z,100291.17
2018-02-06T06:06:57.020Z,100292.46
2018-02-06T06:09:24.637Z,100292.03
2018-02-06T06:11:52.192Z,100298.06
2018-02-06T06:14:19.800Z,100297.17
2018-02-06T06:16:47.400Z,100300.20
2018-02-06T06:19:15.447Z,100295.84
2018-02-06T06:21:43.093Z,100303.64
2018-02-06T06:24:11.471Z,100306.72
2018-02-06T06:26:39.196Z,100301.13
2018-02-06T06:29:07.176Z,100303.27
2018-02-06T06:31:34.776Z,100305.81
2018-02-06T06:34:03.102Z,100313.95
2018-02-06T06:36:30.660Z,100314.23
2018-02-06T06:38:58.253Z,100319.97
2018-02-06T06:41:26.089Z,100321.79
2018-02-06T06:43:53.978Z,100318.36
2018-02-06T06:46:21.688Z,100321.85
2018-02-06T06:48:49.283Z,100320.93
2018-02-06T06:51:17.130Z,100321.25
2018-02-06T06:53:44.695Z,100325.08
2018-02-06T06:56:13.066Z,100317.71
2018-02-06T06:58:40.670Z,100325.28
2018-02-06T07:01:08.731Z,100336.94
2018-02-06T07:03:36.304Z,100340.06
2018-02-06T07:06:05.313Z,100344.80
2018-02-06T07:08:33.338Z,100346.14
2018-02-06T07:11:01.901Z,100349.95
2018-02-06T07:13:29.674Z,100350.98
2018-02-06T07:15:57.282Z,100357.70
2018-02-06T07:18:25.309Z,100353.42
2018-02-06T07:20:52.866Z,100351.53
2018-02-06T07:23:22.052Z,100348.20
2018-02-06T07:25:49.660Z,100341.35
2018-02-06T07:28:17.560Z,100346.13
2018-02-06T07:30:45.496Z,100350.42
2018-02-06T07:33:13.144Z,100352.13
2018-02-06T07:35:41.279Z,100346.55
2018-02-06T07:38:08.832Z,100346.98
2018-02-06T07:40:36.780Z,100342.66
2018-02-06T07:43:05.079Z,100348.25
2018-02-06T07:45:33.796Z,100342.97
2018-02-06T07:48:02.298Z,100347.75
2018-02-06T07:50:30.193Z,100345.27
2018-02-06T07:52:59.817Z,100352.59
2018-02-06T07:55:27.441Z,100350.77
2018-02-06T07:57:55.511Z,100354.23
2018-02-06T08:00:24.067Z,100360.23
2018-02-06T08:02:51.673Z,100355.03
2018-02-06T08:05:19.228Z,100352.80
2018-02-06T08:07:46.788Z,100354.25
2018-02-06T08:10:14.477Z,100355.59
2018-02-06T08:12:42.037Z,100353.05
2018-02-06T08:15:09.676Z,100356.08
2018-02-06T08:17:37.236Z,100362.55
2018-02-06T08:20:04.792Z,100365.13
2018-02-06T08:22:32.396Z,100375.83
2018-02-06T08:25:00.138Z,100371.52
2018-02-06T08:27:27.710Z,100366.32
2018-02-06T08:29:55.268Z,100367.10
2018-02-06T08:32:22.869Z,100367.94
2018-02-06T08:34:50.431Z,100357.54
2018-02-06T08:37:18.060Z,100359.31
2018-02-06T08:39:45.611Z,100361.05
2018-02-06T08:42:13.218Z,100361.66
2018-02-06T08:44:40.792Z,100359.97
2018-02-06T08:47:08.408Z,100354.78
2018-02-06T08:49:35.991Z,100342.95
2018-02-06T08:52:03.602Z,100344.95
2018-02-06T08:54:31.194Z,100333.88
2018-02-06T08:56:58.808Z,100340.64
2018-02-06T08:59:26.379Z,100346.88
2018-02-06T09:01:53.967Z,100339.50
2018-02-06T09:05:22.603Z,100342.39
2018-02-06T09:07:50.268Z,100340.69
2018-02-06T09:10:17.816Z,100343.08
2018-02-06T09:12:46.009Z,100347.24
2018-02-06T09:15:13.558Z,100349.50
2018-02-06T09:17:41.838Z,100345.08
2018-02-06T09:20:09.431Z,100349.94
2018-02-06T09:22:37.032Z,100346.13
2018-02-06T09:25:04.583Z,100347.41
2018-02-06T09:27:33.133Z,100346.89
2018-02-06T09:30:01.516Z,100350.94
2018-02-06T09:32:29.133Z,100349.75
2018-02-06T09:34:56.734Z,100346.51
2018-02-06T09:37:24.347Z,100342.28
2018-02-06T09:39:51.895Z,100347.05
2018-02-06T09:42:19.490Z,100354.18
2018-02-06T09:44:47.855Z,100349.47
2018-02-06T09:47:15.432Z,100349.40
2018-02-06T09:49:42.974Z,100341.71
2018-02-06T09:52:10.570Z,100342.13
2018-02-06T09:54:38.113Z,100338.66
2018-02-06T09:57:05.663Z,100338.66
2018-02-06T09:59:34.127Z,100335.19
2018-02-06T10:02:02.873Z,100336.09
2018-02-06T10:04:30.427Z,100331.70
2018-02-06T10:06:58.019Z,100330.44
2018-02-06T10:09:25.606Z,100324.39
2018-02-06T10:11:53.374Z,100316.48
2018-02-06T10:14:20.966Z,100313.07
2018-02-06T10:16:48.528Z,100307.84
2018-02-06T10:19:16.097Z,100309.86
2018-02-06T10:21:43.677Z,100300.45
2018-02-06T10:24:12.151Z,100293.59
2018-02-06T10:26:39.698Z,100290.04
2018-02-06T10:29:07.724Z,100288.09
2018-02-06T10:31:36.067Z,100297.09
2018-02-06T10:34:03.751Z,100297.81
2018-02-06T10:36:32.436Z,100295.81
2018-02-06T10:38:59.994Z,100303.43
2018-02-06T10:41:28.379Z,100300.95
2018-02-06T10:43:56.156Z,100288.32
2018-02-06T10:46:23.747Z,100284.86
2018-02-06T10:48:51.682Z,100275.80
2018-02-06T10:51:19.448Z,100283.20
2018-02-06T10:53:46.997Z,100278.36
2018-02-06T10:56:14.621Z,100274.27
2018-02-06T10:58:42.235Z,100277.42
2018-02-06T11:01:09.818Z,100287.41
2018-02-06T11:03:37.411Z,100286.92
2018-02-06T11:06:04.993Z,100282.34
2018-02-06T11:08:32.538Z,100278.69
2018-02-06T11:11:00.514Z,100278.16
2018-02-06T11:13:28.673Z,100271.52
2018-02-06T11:15:56.238Z,100276.36
2018-02-06T11:18:23.847Z,100262.99
2018-02-06T11:20:51.426Z,100253.05
2018-02-06T11:23:19.029Z,100247.38
2018-02-06T11:25:46.565Z,100242.73
2018-02-06T11:28:14.165Z,100231.03
2018-02-06T11:30:42.708Z,100228.33
2018-02-06T11:33:10.326Z,100234.14
2018-02-06T11:35:38.883Z,100243.27
2018-02-06T11:38:06.434Z,100243.16
2018-02-06T11:40:34.286Z,100247.05
2018-02-06T11:43:01.830Z,100241.92
2018-02-06T11:45:29.648Z,100238.81
2018-02-06T11:47:57.189Z,100234.53
2018-02-06T11:50:24.765Z,100234.06
2018-02-06T11:52:52.355Z,100240.08
2018-02-06T11:55:19.904Z,100229.64
2018-02-06T11:57:47.494Z,100226.47
2018-02-06T12:00:15.131Z,100228.73
2018-02-06T12:02:42.713Z,100242.49
2018-02-06T12:05:10.313Z,100221.52
2018-02-06T12:07:38.121Z,100229.95
2018-02-06T12:10:06.091Z,100231.61
2018-02-06T12:12:33.705Z,100221.76
2018-02-06T12:15:01.246Z,100228.69
2018-02-06T12:17:29.095Z,100227.09
2018-02-06T12:19:56.674Z,100221.62
2018-02-06T12:22:26.797Z,100221.34
2018-02-06T12:24:55.106Z,100214.15
2018-02-06T12:27:22.656Z,100215.20
2018-02-06T12:29:50.290Z,100210.17
2018-02-06T12:32:17.842Z,100214.69
2018-02-06T12:34:46.134Z,100208.02
2018-02-06T12:37:13.685Z,100204.81
2018-02-06T12:39:41.244Z,100205.75
2018-02-06T12:42:09.320Z,100206.13
2018-02-06T12:44:37.312Z,100206.18
2018-02-06T12:47:05.042Z,100204.47
2018-02-06T12:49:32.582Z,100198.39
2018-02-06T12:52:00.193Z,100200.55
2018-02-06T12:54:28.279Z,100191.80
2018-02-06T12:56:55.849Z,100178.08
2018-02-06T12:59:23.453Z,100182.73
2018-02-06T13:01:51.017Z,100177.29
2018-02-06T13:04:22.721Z,100178.82
2018-02-06T13:06:50.297Z,100175.28
2018-02-06T13:09:17.959Z,100181.88
2018-02-06T13:11:45.511Z,100186.73
2018-02-06T13:14:13.125Z,100187.00
2018-02-06T13:16:40.711Z,100186.34
2018-02-06T13:19:08.262Z,100187.28
2018-02-06T13:21:35.944Z,100192.84
2018-02-06T13:24:03.486Z,100188.36
2018-02-06T13:26:31.093Z,100188.70
2018-02-06T13:28:58.673Z,100186.72
2018-02-06T13:31:26.272Z,100188.53
2018-02-06T13:33:54.071Z,100186.66
2018-02-06T13:36:22.301Z,100183.94
2018-02-06T13:38:49.885Z,100176.67
2018-02-06T13:41:17.423Z,100179.14
2018-02-06T13:43:45.728Z,100175.87
2018-02-06T13:46:13.302Z,100173.64
2018-02-06T13:48:41.033Z,100179.23
2018-02-06T13:51:08.622Z,100177.70
2018-02-06T13:53:36.172Z,100170.66
2018-02-06T13:56:03.808Z,100168.30
2018-02-06T13:58:31.374Z,100167.11
2018-02-06T14:00:58.914Z,100165.58
2018-02-06T14:03:26.502Z,100168.97
2018-02-06T14:05:54.916Z,100172.50
2018-02-06T14:08:22.530Z,100173.57
2018-02-06T14:10:51.181Z,100174.99
2018-02-06T14:13:19.816Z,100171.34
2018-02-06T14:15:47.922Z,100166.92
2018-02-06T14:18:15.715Z,100163.13
2018-02-06T14:20:45.154Z,100165.27
2018-02-06T14:23:13.623Z,100164.24
2018-02-06T14:25:41.464Z,100169.70
2018-02-06T14:28:09.012Z,100170.72
2018-02-06T14:30:36.606Z,100169.39
2018-02-06T14:33:04.137Z,100169.25
2018-02-06T14:35:31.710Z,100171.63
2018-02-06T14:37:59.433Z,100158.57
2018-02-06T14:40:26.979Z,100160.78
2018-02-06T14:42:54.894Z,100166.70
2018-02-06T14:45:23.434Z,100149.74
2018-02-06T14:47:52.200Z,100153.73
2018-02-06T14:50:19.773Z,100152.59
2018-02-06T14:52:48.132Z,100158.87
2018-02-06T14:55:15.788Z,100160.88
2018-02-06T14:57:43.339Z,100163.77
2018-02-06T15:00:10.893Z,100167.59
2018-02-06T15:02:38.498Z,100169.25
2018-02-06T15:05:06.052Z,100161.75
2018-02-06T15:07:33.643Z,100161.65
2018-02-06T15:10:01.234Z,100153.27
2018-02-06T15:12:28.787Z,100155.97
2018-02-06T15:14:57.042Z,100158.88
2018-02-06T15:17:25.065Z,100158.41
2018-02-06T15:19:53.004Z,100158.52
2018-02-06T15:22:20.900Z,100155.11
2018-02-06T15:24:48.474Z,100163.86
2018-02-06T15:27:17.414Z,100168.50
2018-02-06T15:29:45.005Z,100163.11
2018-02-06T15:32:12.806Z,100156.93
2018-02-06T15:34:41.347Z,100158.23
2018-02-06T15:37:08.947Z,100158.80
2018-02-06T15:39:37.617Z,100163.22
2018-02-06T15:42:05.186Z,100172.70
2018-02-06T15:44:33.048Z,100177.20
2018-02-06T15:47:00.599Z,100173.56
2018-02-06T15:49:28.282Z,100168.87
2018-02-06T15:51:55.841Z,100175.91
2018-02-06T15:54:23.805Z,100180.47
2018-02-06T15:56:51.349Z,100176.42
2018-02-06T15:59:18.979Z,100181.23
2018-02-06T16:01:47.192Z,100183.83
2018-02-06T16:04:14.802Z,100177.80
2018-02-06T16:06:43.346Z,100181.95
2018-02-06T16:09:10.950Z,100175.59
2018-02-06T16:11:38.961Z,100180.95
2018-02-06T16:14:08.445Z,100181.98
2018-02-06T16:16:37.252Z,100179.05
2018-02-06T16:19:05.361Z,100180.73
2018-02-06T16:21:33.214Z,100191.50
2018-02-06T16:24:01.923Z,100198.66
2018-02-06T16:26:30.245Z,100202.84
2018-02-06T16:28:57.850Z,100198.33
2018-02-06T16:31:25.998Z,100206.37
2018-02-06T16:33:53.909Z,100216.09
2018-02-06T16:36:22.622Z,100219.33
2018-02-06T16:38:50.582Z,100218.83
2018-02-06T16:41:19.055Z,100213.96
2018-02-06T16:43:47.041Z,100218.09
2018-02-06T16:46:15.447Z,100224.55
2018-02-06T16:48:43.489Z,100222.81
2018-02-06T16:51:11.627Z,100229.81
2018-02-06T16:53:39.722Z,100229.06
2018-02-06T16:56:07.859Z,100238.70
2018-02-06T16:58:37.371Z,100239.56
2018-02-06T17:01:05.733Z,100225.66
2018-02-06T17:03:33.964Z,100225.17
2018-02-06T17:06:02.601Z,100227.82
2018-02-06T17:08:30.772Z,100218.26
2018-02-06T17:10:59.563Z,100223.01
2018-02-06T17:13:28.458Z,100223.97
2018-02-06T17:15:56.833Z,100223.73
2018-02-06T17:18:25.477Z,100224.59
2018-02-06T17:20:53.474Z,100227.14
2018-02-06T17:23:21.910Z,100223.75
2018-02-06T17:25:51.295Z,100228.03
2018-02-06T17:28:20.074Z,100219.72
2018-02-06T17:30:48.562Z,100217.48
2018-02-06T17:33:17.023Z,100224.94
2018-02-06T17:35:44.998Z,100226.67
2018-02-06T17:38:13.799Z,100231.73
2018-02-06T17:40:42.160Z,100237.47
2018-02-06T17:43:10.865Z,100237.95
2018-02-06T17:45:39.244Z,100242.42
2018-02-06T17:48:07.717Z,100245.87
2018-02-06T17:50:38.723Z,100244.22
2018-02-06T17:53:07.433Z,100243.61
2018-02-06T17:55:36.441Z,100244.08
2018-02-06T17:58:05.726Z,100244.81
2018-02-06T18:00:35.152Z,100245.06
2018-02-06T18:03:04.150Z,100249.27
2018-02-06T18:05:33.326Z,100251.52
2018-02-06T18:08:02.314Z,100247.84
2018-02-06T18:10:30.698Z,100257.93
2018-02-06T18:13:01.505Z,100258.11
2018-02-06T18:15:30.211Z,100259.94
2018-02-06T18:17:59.576Z,100259.13
2018-02-06T18:20:28.168Z,100260.90
2018-02-06T18:22:56.582Z,100256.57
2018-02-06T18:25:25.268Z,100266.51
2018-02-06T18:27:55.417Z,100267.82
2018-02-06T18:30:25.235Z,100268.20
2018-02-06T18:32:53.783Z,100270.25
2018-02-06T18:35:22.488Z,100274.47
2018-02-06T18:37:51.094Z,100272.47
2018-02-06T18:40:19.842Z,100278.52
2018-02-06T18:42:49.177Z,100274.02
2018-02-06T18:45:18.889Z,100277.77
2018-02-06T18:47:47.020Z,100271.56
2018-02-06T18:50:16.131Z,100276.19
2018-02-06T18:52:44.807Z,100270.95
2018-02-06T18:55:13.122Z,100275.56
2018-02-06T18:57:42.176Z,100278.75
2018-02-06T19:00:10.857Z,100278.83
2018-02-06T19:02:40.799Z,100273.91
2018-02-06T19:05:10.020Z,100277.27
2018-02-06T19:07:39.384Z,100283.17
2018-02-06T19:10:08.332Z,100284.60
2018-02-06T19:12:36.375Z,100290.53
2018-02-06T19:15:05.228Z,100280.84
2018-02-06T19:17:34.877Z,100281.52
2018-02-06T19:20:03.436Z,100283.55
2018-02-06T19:22:31.675Z,100289.56
2018-02-06T19:25:01.099Z,100293.05
2018-02-06T19:27:29.479Z,100290.41
2018-02-06T19:29:58.270Z,100291.99
2018-02-06T19:32:27.576Z,100290.69
2018-02-06T19:34:55.845Z,100300.27
2018-02-06T19:37:24.644Z,100305.55
2018-02-06T19:39:53.546Z,100307.30
2018-02-06T19:42:23.119Z,100300.73
2018-02-06T19:44:51.960Z,100309.38
2018-02-06T19:47:21.660Z,100311.55
2018-02-06T19:49:50.517Z,100307.67
2018-02-06T19:52:19.855Z,100304.25
2018-02-06T19:54:49.935Z,100308.49
2018-02-06T19:57:19.487Z,100309.39
2018-02-06T19:59:48.333Z,100302.80
2018-02-06T20:02:17.363Z,100304.09
2018-02-06T20:04:46.219Z,100301.07
2018-02-06T20:07:15.235Z,100297.99
2018-02-06T20:09:44.852Z,100302.70
2018-02-06T20:12:14.733Z,100311.39
2018-02-06T20:14:43.076Z,100309.45
2018-02-06T20:17:12.213Z,100306.22
2018-02-06T20:19:40.279Z,100307.80
2018-02-06T20:22:08.383Z,100305.03
2018-02-06T20:24:37.560Z,100301.03
2018-02-06T20:27:06.070Z,100302.23
2018-02-06T20:29:34.633Z,100304.95
2018-02-06T20:32:02.684Z,100307.95
2018-02-06T20:34:30.943Z,100308.47
2018-02-06T20:36:58.961Z,100308.91
2018-02-06T20:39:26.989Z,100307.16
2018-02-06T20:41:56.153Z,100309.34
2018-02-06T20:44:24.509Z,100314.95
2018-02-06T20:46:52.741Z,100318.86
2018-02-06T20:49:21.031Z,100325.73
2018-02-06T20:51:49.404Z,100324.48
2018-02-06T20:54:17.362Z,100334.82
2018-02-06T20:56:45.438Z,100332.64
2018-02-06T20:59:13.599Z,100336.53
2018-02-06T21:01:41.680Z,100334.84
2018-02-06T21:04:10.984Z,100331.84
2018-02-06T21:06:39.056Z,100332.25
2018-02-06T21:09:07.116Z,100328.80
2018-02-06T21:11:34.951Z,100337.02
2018-02-06T21:14:02.905Z,100329.61
2018-02-06T21:16:30.990Z,100336.03
2018-02-06T21:18:58.947Z,100345.89
2018-02-06T21:21:26.534Z,100346.35
2018-02-06T21:23:55.211Z,100343.80
2018-02-06T21:26:22.783Z,100336.53
2018-02-06T21:28:50.445Z,100338.70
2018-02-06T21:31:18.030Z,100337.82
2018-02-06T21:33:45.575Z,100340.72
2018-02-06T21:36:13.215Z,100345.09
2018-02-06T21:38:40.745Z,100332.25
2018-02-06T21:41:08.339Z,100342.20
2018-02-06T21:43:35.893Z,100341.63
2018-02-06T21:46:03.876Z,100336.14
2018-02-06T21:48:31.461Z,100339.21
2018-02-06T21:50:59.866Z,100340.05
2018-02-06T21:53:27.406Z,100338.22
2018-02-06T21:55:54.960Z,100342.08
2018-02-06T21:58:22.552Z,100346.12
2018-02-06T22:00:50.157Z,100348.97
2018-02-06T22:03:17.737Z,100348.62
2018-02-06T22:05:45.284Z,100353.26
2018-02-06T22:08:13.684Z,100358.25
2018-02-06T22:10:41.224Z,100360.89
2018-02-06T22:13:08.968Z,100360.16
2018-02-06T22:15:36.510Z,100360.62
2018-02-06T22:18:04.510Z,100362.45
2018-02-06T22:20:32.063Z,100359.45
2018-02-06T22:22:59.790Z,100361.10
2018-02-06T22:25:27.349Z,100353.41
2018-02-06T22:27:54.943Z,100350.45
2018-02-06T22:30:22.543Z,100352.61
2018-02-06T22:32:50.086Z,100350.45
2018-02-06T22:35:17.675Z,100353.05
2018-02-06T22:37:45.591Z,100365.56
2018-02-06T22:40:13.199Z,100367.23
2018-02-06T22:42:40.778Z,100366.88
2018-02-06T22:45:08.753Z,100364.31
2018-02-06T22:47:36.335Z,100355.59
2018-02-06T22:50:04.385Z,100359.45
2018-02-06T22:52:32.591Z,100349.92
2018-02-06T22:55:00.130Z,100351.20
2018-02-06T22:57:27.726Z,100348.98
2018-02-06T22:59:55.305Z,100344.16
2018-02-06T23:02:22.894Z,100338.98
2018-02-06T23:04:50.435Z,100341.66
2018-02-06T23:07:18.022Z,100343.95
2018-02-06T23:09:45.608Z,100355.61
2018-02-06T23:12:13.200Z,100341.38
2018-02-06T23:14:41.164Z,100345.67
2018-02-06T23:17:08.753Z,100334.44
2018-02-06T23:19:36.307Z,100334.43
2018-02-06T23:22:03.870Z,100340.06
2018-02-06T23:24:31.686Z,100342.22
2018-02-06T23:26:59.516Z,100343.53
2018-02-06T23:29:27.101Z,100332.70
2018-02-06T23:31:55.022Z,100335.70
2018-02-06T23:34:22.621Z,100332.67
2018-02-06T23:36:50.224Z,100338.27
2018-02-06T23:39:17.813Z,100335.72
2018-02-06T23:41:46.299Z,100333.99
2018-02-06T23:44:13.842Z,100331.80
2018-02-06T23:46:41.434Z,100328.31
2018-02-06T23:49:09.479Z,100323.91
2018-02-06T23:51:37.057Z,100330.36
2018-02-06T23:54:04.599Z,100325.56
2018-02-06T23:56:32.187Z,100326.05
2018-02-06T23:58:59.770Z,100323.00
